Sawbridgeworth, United Kingdom
Current Conditions -  °F | °C
As of 9:20 PM on Friday 28 Nov 2014 (Local Time) from EGSS Reporting Station
Haze Haze  
Wind Chill: 10°   Ceiling: Unl
Heat Index: 10°   Visibility: 3mi
Dew Point: 10°   Wind: 9mph
Humidity: 100%   Direction: 80°E
Pressure: 29.74"   Gusts: NA
Location:  51.8°N, 0.14°E
Report Text: EGSS 282120Z 08008KT 5000 BR NSC 10/10 Q1007
Loading
Personal Weather Stations






























Interactive Weather Map New forecast layout! Learn more

10-Day Weather Forecast

Advertisements
Track Severe Weather on mobile